Flight Track Log - Related Links

Times and Time Zones

All times are in EDT time to prevent confusion due to time zone crossing. See the RPA3436 flight status page for this flight to view local times or setup timezone preferences in your user account.

Time Position Orientation Groundspeed Altitude Reporting Facility
EDT Latitude Longitude Course Direction KTS MPH feet Rate Location/Type
Mon 10:20:28 AM 38.8297 -77.0281 174° South 134 154 1,200  Level Washington Center
Mon 10:21:29 AM 38.7797 -77.0217 174° South 158 182 2,200 1,328 Climbing Washington Center
Mon 10:22:30 AM 38.7303 -76.9861 151° Southeast 193 222 3,900 2,571 Climbing Washington Center
Mon 10:23:28 AM 38.7772 -76.8886 58° Northeast 191 220 7,300 3,025 Climbing Washington Center
Mon 10:24:29 AM 38.8403 -76.8203 40° Northeast 238 274 9,900 1,785 Climbing Washington Center
Mon 10:25:29 AM 38.8933 -76.7253 54° Northeast 286 329 10,900 1,140 Climbing Washington Center
Mon 10:26:30 AM 38.8881 -76.6158 94° East 312 359 12,200 1,686 Climbing Washington Center
Mon 10:27:30 AM 38.8917 -76.4450 88° East 352 405 14,300 2,154 Climbing Washington Center
Mon 10:28:27 AM 38.9342 -76.3122 68° East 388 447 16,400 1,525 Climbing Washington Center
Mon 10:29:28 AM 39.0078 -76.1953 51° Northeast 394 453 17,300 1,033 Climbing Washington Center
Mon 10:30:29 AM 39.0833 -76.0675 53° Northeast 421 484 18,500 1,091 Climbing Washington Center
Mon 10:31:29 AM 39.1589 -75.9342 54° Northeast 435 501 19,500 1,041 Climbing Washington Center
Mon 10:32:30 AM 39.2467 -75.8139 47° Northeast 448 516 20,600 1,059 Climbing Washington Center
Mon 10:33:28 AM 39.3383 -75.6936 45° Northeast 459 528 21,600 908 Climbing Washington Center
Mon 10:34:29 AM 39.4303 -75.5700 46° Northeast 465 535 22,400 885 Climbing Washington Center
Mon 10:35:30 AM 39.5258 -75.4517 44° Northeast 465 535 23,400 958 Climbing Washington Center
Mon 10:36:28 AM 39.6217 -75.3247 46° Northeast 475 547 24,300 857 Climbing Washington Center
Mon 10:37:29 AM 39.7150 -75.1950 47° Northeast 481 554 25,100 992 Climbing Washington Center
Mon 10:38:41 AM 39.8172 -75.0464 48° Northeast 499 574 26,500 1,200 Climbing New York Center
Mon 10:39:39 AM 39.9072 -74.9194 47° Northeast 488 562 27,700 1,271 Climbing New York Center
Mon 10:40:39 AM 40.0058 -74.7789 47° Northeast 483 556 29,000 645 Climbing New York Center
Mon 10:41:40 AM 40.1083 -74.6464 45° Northeast 488 562 29,000  Level New York Center
Mon 10:42:41 AM 40.2164 -74.5219 41° Northeast 510 587 29,000  Level New York Center
Mon 10:43:41 AM 40.3183 -74.4022 42° Northeast 523 602 29,000  Level New York Center
Mon 10:44:39 AM 40.4303 -74.2800 40° Northeast 528 608 29,000 -733 Level New York Center
Mon 10:46:41 AM 40.6511 -74.0267 41° Northeast 537 618 26,800 -1,582 Descending Boston Center
Mon 10:47:41 AM 40.7528 -73.9086 41° Northeast 507 583 24,200 -1,400 Descending Boston Center
Mon 10:48:41 AM 40.8522 -73.7900 42° Northeast 484 557 24,000 -400 Descending Boston Center
Mon 10:49:41 AM 40.9581 -73.6494 45° Northeast 479 551 23,400 -500 Descending Boston Center
Mon 10:50:41 AM 41.0692 -73.5717 28° Northeast 464 534 23,000 -700 Descending Boston Center
Mon 10:51:41 AM 41.1986 -73.5600 North 443 510 22,000 -1,300 Descending Boston Center
Mon 10:52:41 AM 41.3217 -73.5567 North 443 510 20,400 -1,550 Descending Boston Center
Mon 10:53:41 AM 41.4319 -73.5531 North 443 510 18,900 -1,450 Descending Boston Center
Mon 10:54:41 AM 41.5656 -73.5500 North 438 504 17,500 -1,600 Descending Boston Center
Mon 10:55:41 AM 41.6697 -73.5461 North 426 490 15,700 -1,850 Descending Boston Center
Mon 10:56:41 AM 41.7947 -73.5400 North 407 468 13,800 -1,676 Descending Boston Center
Mon 10:57:32 AM 41.8825 -73.5331 North 399 459 12,600 -1,393 Descending Boston Center
Mon 10:58:33 AM 41.9972 -73.5294 North 382 440 11,200 -750 Descending Boston Center
Mon 10:59:40 AM 42.1072 -73.5567 350° North 367 422 11,000 -86 Descending Boston Center
Mon 11:00:53 AM 42.2108 -73.6117 339° North 359 413 11,000  Level Boston Center
Mon 11:01:41 AM 42.2753 -73.6467 338° Northwest 285 328 11,000 -1,486 Level Boston Center
Mon 11:02:42 AM 42.3561 -73.6903 338° Northwest 275 316 8,300 -2,705 Descending Boston Center
Mon 11:03:43 AM 42.4244 -73.7283 338° Northwest 272 313 5,500 -2,777 Descending Boston Center
Mon 11:04:43 AM 42.4928 -73.7636 339° North 259 298 2,700 -1,438 Descending Boston Center
Mon 11:05:44 AM 42.5528 -73.7958 338° Northwest 228 262 2,600 -50 Descending Boston Center
Mon 11:06:44 AM 42.6092 -73.7886 North 209 241 2,600 -198 Level Boston Center
Mon 11:07:45 AM 42.6592 -73.7953 354° North 176 203 2,200 -787 Descending Boston Center
Mon 11:08:46 AM 42.6986 -73.8044 350° North 137 158 1,000 -1,180 Descending Boston Center
Mon 11:13:00 AM 42.7491 -73.8020 17° North  Level Estimated

Login

Don't have an account? Register now (free) for customized features, flight alerts, and more!